Time;durP1;ratioP1;P1;durP2;ratioP2;P2;SDS_P1;SDS_P2;PMS_P1;PMS_P2;Temp;Humidity;BMP_temperature;BMP_pressure;BME280_temperature;BME280_humidity;BME280_pressure;Samples;Min_cycle;Max_cycle;Signal;HPM_P1;HPM_P2
2021/03/26 00:01:21;;;;;;;22.20;19.90;;;9.20;99.90;;;;;;5133032;27;20446;-69
2021/03/26 00:03:52;;;;;;;21.83;19.57;;;9.20;99.90;;;;;;5133285;27;20436;-68
2021/03/26 00:06:20;;;;;;;20.67;18.53;;;9.20;99.90;;;;;;5133087;27;20829;-69
2021/03/26 00:08:47;;;;;;;21.10;19.30;;;9.20;99.90;;;;;;5133110;27;20441;-69
2021/03/26 00:11:15;;;;;;;20.73;18.60;;;9.30;99.90;;;;;;5133166;27;20487;-69
2021/03/26 00:13:42;;;;;;;19.83;18.23;;;9.30;99.90;;;;;;5128073;27;20445;-71
2021/03/26 00:16:10;;;;;;;22.00;19.67;;;9.30;99.90;;;;;;5111896;28;20495;-70
2021/03/26 00:18:37;;;;;;;24.07;21.17;;;9.30;99.90;;;;;;5112189;28;21053;-71
2021/03/26 00:21:04;;;;;;;25.40;23.03;;;9.30;99.90;;;;;;5112303;28;20506;-69
2021/03/26 00:23:30;;;;;;;24.77;22.40;;;9.40;99.90;;;;;;5112357;28;20831;-69
2021/03/26 00:25:57;;;;;;;25.40;22.77;;;9.40;99.90;;;;;;5112392;28;20450;-69
2021/03/26 00:28:23;;;;;;;27.60;24.97;;;9.40;99.90;;;;;;5112622;28;20445;-69
2021/03/26 00:30:49;;;;;;;25.80;23.50;;;9.50;99.90;;;;;;5112321;28;20490;-68
2021/03/26 00:33:15;;;;;;;24.80;22.30;;;9.50;99.90;;;;;;5112439;28;20848;-69
2021/03/26 00:35:42;;;;;;;25.17;22.50;;;9.50;99.90;;;;;;5112056;28;20445;-69
2021/03/26 00:38:09;;;;;;;23.93;21.80;;;9.50;99.90;;;;;;5112167;28;20951;-69
2021/03/26 00:40:35;;;;;;;27.00;22.33;;;9.40;99.90;;;;;;5112144;28;20446;-70
2021/03/26 00:43:03;;;;;;;24.73;22.43;;;9.30;99.90;;;;;;5112140;28;20454;-69
2021/03/26 00:45:31;;;;;;;25.27;23.07;;;9.20;99.90;;;;;;5111876;28;20445;-68
2021/03/26 00:47:58;;;;;;;27.53;24.63;;;9.20;99.90;;;;;;5111907;28;20457;-68
2021/03/26 00:50:29;;;;;;;27.00;24.27;;;9.20;99.90;;;;;;5111658;28;20884;-68
2021/03/26 00:52:55;;;;;;;27.00;21.93;;;9.10;99.90;;;;;;5111968;28;20456;-68
2021/03/26 00:55:22;;;;;;;24.30;22.03;;;9.00;99.90;;;;;;5112116;28;20441;-68
2021/03/26 00:57:48;;;;;;;25.40;23.30;;;9.00;99.90;;;;;;5112067;28;20784;-68
2021/03/26 01:00:21;;;;;;;24.87;22.57;;;8.90;99.90;;;;;;5111558;28;20453;-68
2021/03/26 01:02:48;;;;;;;23.97;21.80;;;8.90;99.90;;;;;;5111719;28;20452;-69
2021/03/26 01:05:18;;;;;;;26.47;23.77;;;8.80;99.90;;;;;;5111792;28;20952;-70
2021/03/26 01:07:45;;;;;;;27.47;23.93;;;8.70;99.90;;;;;;5111658;28;20468;-69
2021/03/26 01:10:14;;;;;;;25.73;23.30;;;8.60;99.90;;;;;;5111710;28;20477;-70
2021/03/26 01:12:41;;;;;;;27.53;24.27;;;8.50;99.90;;;;;;5111651;28;20446;-70
2021/03/26 01:15:12;;;;;;;27.50;24.37;;;8.50;99.90;;;;;;5128882;27;20956;-69
2021/03/26 01:17:39;;;;;;;26.83;24.33;;;8.30;99.90;;;;;;5131918;27;21004;-70
2021/03/26 01:20:08;;;;;;;26.63;23.80;;;8.30;99.90;;;;;;5132590;27;20868;-71
2021/03/26 01:22:34;;;;;;;26.53;23.70;;;8.30;99.90;;;;;;5132402;27;20876;-70
2021/03/26 01:25:00;;;;;;;27.03;24.10;;;8.30;99.90;;;;;;5132341;27;20794;-70
2021/03/26 01:27:27;;;;;;;27.93;24.23;;;8.40;99.90;;;;;;5132202;27;20448;-70
2021/03/26 01:29:54;;;;;;;27.20;24.57;;;8.40;99.90;;;;;;5135019;27;20570;-70
2021/03/26 01:32:20;;;;;;;26.27;23.60;;;8.30;99.90;;;;;;5136797;27;20444;-69
2021/03/26 01:34:46;;;;;;;25.93;23.70;;;8.30;99.90;;;;;;5136508;27;20497;-69
2021/03/26 01:37:12;;;;;;;27.97;25.17;;;8.30;99.90;;;;;;5136364;27;20444;-69
2021/03/26 01:39:39;;;;;;;26.97;24.17;;;8.30;99.90;;;;;;5136202;27;20937;-69
2021/03/26 01:42:20;;;;;;;29.87;26.77;;;8.30;99.90;;;;;;5136542;27;20464;-69
2021/03/26 01:44:47;;;;;;;28.10;25.30;;;8.20;99.90;;;;;;5136222;27;20440;-69
2021/03/26 01:47:14;;;;;;;26.67;23.90;;;8.20;99.90;;;;;;5136243;27;20452;-69
2021/03/26 01:49:40;;;;;;;28.40;25.90;;;8.20;99.90;;;;;;5135919;27;20480;-70
2021/03/26 01:52:07;;;;;;;25.37;23.20;;;8.20;99.90;;;;;;5136348;27;20950;-70
2021/03/26 01:54:33;;;;;;;26.73;24.20;;;8.30;99.90;;;;;;5135936;27;20459;-70
2021/03/26 01:56:59;;;;;;;27.97;25.30;;;8.30;99.90;;;;;;5135665;27;20501;-70
2021/03/26 01:59:25;;;;;;;27.33;24.10;;;8.30;99.90;;;;;;5136037;27;20453;-70
2021/03/26 02:01:58;;;;;;;26.80;24.10;;;8.30;99.90;;;;;;5136108;27;20448;-69
2021/03/26 02:04:29;;;;;;;25.10;22.70;;;8.20;99.90;;;;;;5135755;27;20451;-69
2021/03/26 02:06:57;;;;;;;27.03;24.70;;;8.20;99.90;;;;;;5135793;27;20440;-70
2021/03/26 02:09:27;;;;;;;26.60;24.20;;;8.10;99.90;;;;;;5135840;27;20464;-69
2021/03/26 02:11:56;;;;;;;27.13;24.50;;;8.00;99.90;;;;;;5135885;27;20448;-69
2021/03/26 02:14:26;;;;;;;28.70;25.73;;;7.90;99.90;;;;;;5124813;27;20446;-70
2021/03/26 02:16:53;;;;;;;30.27;27.30;;;7.80;99.90;;;;;;5114795;28;20481;-69
2021/03/26 02:19:24;;;;;;;25.93;23.43;;;7.80;99.90;;;;;;5115050;28;20456;-69
2021/03/26 02:21:52;;;;;;;26.20;23.57;;;7.70;99.90;;;;;;5114963;28;20451;-70
2021/03/26 02:24:20;;;;;;;28.50;25.57;;;7.70;99.90;;;;;;5114667;28;20452;-69
2021/03/26 02:26:49;;;;;;;25.80;23.37;;;7.70;99.90;;;;;;5114918;28;20437;-69
2021/03/26 02:29:25;;;;;;;26.27;23.53;;;7.80;99.90;;;;;;5114572;28;20446;-69
2021/03/26 02:31:51;;;;;;;24.90;22.60;;;7.70;99.90;;;;;;5115060;28;20524;-69
2021/03/26 02:34:19;;;;;;;28.13;25.43;;;7.70;99.90;;;;;;5114758;28;20445;-69
2021/03/26 02:36:48;;;;;;;27.80;24.90;;;7.70;99.90;;;;;;5114404;28;20475;-69
2021/03/26 02:39:22;;;;;;;28.30;25.37;;;7.80;99.90;;;;;;5114177;28;20456;-70
2021/03/26 02:41:53;;;;;;;28.03;25.40;;;7.70;99.90;;;;;;5114420;28;20469;-69
2021/03/26 02:44:28;;;;;;;29.63;26.90;;;7.60;99.90;;;;;;5114670;28;20452;-70
2021/03/26 02:47:13;;;;;;;29.77;26.80;;;7.60;99.90;;;;;;5114624;28;20437;-70
2021/03/26 02:49:45;;;;;;;27.90;25.50;;;7.50;99.90;;;;;;5114451;28;20441;-68
2021/03/26 02:52:23;;;;;;;31.00;27.90;;;7.50;99.90;;;;;;5114370;28;20811;-67
2021/03/26 02:54:54;;;;;;;30.00;27.03;;;7.40;99.90;;;;;;5114484;28;20441;-68
2021/03/26 02:57:27;;;;;;;27.53;25.07;;;7.30;99.90;;;;;;5114358;28;20451;-67
2021/03/26 02:59:59;;;;;;;27.20;24.50;;;7.20;99.90;;;;;;5114203;28;20491;-67
2021/03/26 03:02:29;;;;;;;29.43;26.73;;;7.10;99.90;;;;;;5114299;28;20449;-67
2021/03/26 03:05:01;;;;;;;31.30;28.30;;;7.10;99.90;;;;;;5114142;28;20449;-68
2021/03/26 03:07:31;;;;;;;30.93;27.77;;;7.10;99.90;;;;;;5114150;28;20510;-68
2021/03/26 03:10:06;;;;;;;29.63;26.67;;;7.00;99.90;;;;;;5113696;28;20445;-67
2021/03/26 03:12:38;;;;;;;27.20;24.80;;;7.00;99.90;;;;;;5114093;28;20452;-67
2021/03/26 03:15:12;;;;;;;27.97;25.43;;;7.00;99.90;;;;;;5130290;27;20450;-67
2021/03/26 03:17:44;;;;;;;29.30;26.50;;;6.90;99.90;;;;;;5134391;27;20478;-66
2021/03/26 03:20:17;;;;;;;28.33;25.63;;;6.90;99.90;;;;;;5134353;27;20839;-66
2021/03/26 03:22:52;;;;;;;31.73;28.20;;;6.90;99.90;;;;;;5134406;27;20442;-66
2021/03/26 03:25:22;;;;;;;29.80;26.47;;;6.80;99.90;;;;;;5134175;27;20461;-67
2021/03/26 03:27:57;;;;;;;29.23;25.97;;;6.80;99.90;;;;;;5134276;27;20447;-67
2021/03/26 03:30:35;;;;;;;30.97;27.80;;;6.70;99.90;;;;;;5134117;27;20446;-67
2021/03/26 03:33:08;;;;;;;31.83;27.80;;;6.70;99.90;;;;;;5134045;27;20452;-68
2021/03/26 03:35:40;;;;;;;27.83;25.27;;;6.60;99.90;;;;;;5133989;27;20453;-67
2021/03/26 03:38:15;;;;;;;30.13;26.40;;;6.60;99.90;;;;;;5134176;27;20445;-67
2021/03/26 03:40:52;;;;;;;31.60;28.20;;;6.50;99.90;;;;;;5133737;27;20557;-66
2021/03/26 03:43:26;;;;;;;29.87;27.27;;;6.40;99.90;;;;;;5133758;27;20454;-66
2021/03/26 03:46:00;;;;;;;31.30;28.20;;;6.40;99.90;;;;;;5133834;27;20451;-66
2021/03/26 03:48:32;;;;;;;28.83;26.03;;;6.30;99.90;;;;;;5133536;27;20447;-66
2021/03/26 03:51:03;;;;;;;30.77;27.57;;;6.40;99.90;;;;;;5133089;27;20445;-66
2021/03/26 03:53:34;;;;;;;30.60;27.50;;;6.30;99.90;;;;;;5133491;27;20454;-66
2021/03/26 03:56:08;;;;;;;27.00;24.37;;;6.30;99.90;;;;;;5133602;27;20439;-66
2021/03/26 03:58:38;;;;;;;31.73;27.80;;;6.30;99.90;;;;;;5133537;27;20464;-66
2021/03/26 04:01:09;;;;;;;26.33;23.80;;;6.30;99.90;;;;;;5133408;27;21031;-66
2021/03/26 04:03:40;;;;;;;27.93;25.23;;;6.30;99.90;;;;;;5133539;27;20480;-67
2021/03/26 04:06:11;;;;;;;30.83;26.80;;;6.40;99.90;;;;;;5133456;27;20449;-66
2021/03/26 04:08:43;;;;;;;28.80;25.83;;;6.40;99.90;;;;;;5133142;27;20822;-66
2021/03/26 04:11:16;;;;;;;28.77;25.90;;;6.30;99.90;;;;;;5133361;27;20446;-66
2021/03/26 04:13:48;;;;;;;26.53;24.13;;;6.40;99.90;;;;;;5128051;27;20454;-67
2021/03/26 04:16:18;;;;;;;29.10;26.30;;;6.30;99.90;;;;;;5112641;28;20518;-67
2021/03/26 04:18:50;;;;;;;28.70;25.80;;;6.30;99.90;;;;;;5112394;28;20504;-67
2021/03/26 04:21:21;;;;;;;28.80;26.10;;;6.30;99.90;;;;;;5112513;28;20488;-68
2021/03/26 04:23:55;;;;;;;31.60;26.60;;;6.30;99.90;;;;;;5112692;28;20561;-68
2021/03/26 04:26:29;;;;;;;29.53;26.37;;;6.30;99.90;;;;;;5112435;28;20447;-68
2021/03/26 04:29:02;;;;;;;27.90;25.17;;;6.40;99.90;;;;;;5112560;28;20456;-67
2021/03/26 04:31:33;;;;;;;29.63;26.50;;;6.40;99.90;;;;;;5112412;28;20451;-66
2021/03/26 04:34:00;;;;;;;28.10;25.23;;;6.40;99.90;;;;;;5112595;28;20880;-66
2021/03/26 04:36:36;;;;;;;29.90;26.87;;;6.40;99.90;;;;;;5112574;28;20446;-66
2021/03/26 04:39:08;;;;;;;28.50;25.63;;;6.30;99.90;;;;;;5112253;28;20449;-66
2021/03/26 04:41:42;;;;;;;29.27;26.40;;;6.30;99.90;;;;;;5112266;28;21010;-67
2021/03/26 04:44:13;;;;;;;29.30;26.27;;;6.30;99.90;;;;;;5112238;28;20455;-67
2021/03/26 04:46:47;;;;;;;28.97;26.43;;;6.20;99.90;;;;;;5112045;28;20453;-67
2021/03/26 04:49:18;;;;;;;28.07;25.27;;;6.20;99.90;;;;;;5112101;28;20479;-67
2021/03/26 04:51:48;;;;;;;28.87;26.57;;;6.20;99.90;;;;;;5112138;28;20935;-67
2021/03/26 04:54:21;;;;;;;31.60;28.27;;;6.20;99.90;;;;;;5111971;28;20451;-67
2021/03/26 04:56:52;;;;;;;30.87;27.60;;;6.30;99.90;;;;;;5111904;28;20468;-67
2021/03/26 04:59:30;;;;;;;29.13;26.63;;;6.30;99.90;;;;;;5112007;28;20445;-67
2021/03/26 05:02:00;;;;;;;29.40;26.60;;;6.30;99.90;;;;;;5111882;28;20439;-67
2021/03/26 05:04:31;;;;;;;28.90;26.03;;;6.40;99.90;;;;;;5112045;28;20445;-67
2021/03/26 05:07:01;;;;;;;29.03;26.37;;;6.40;99.90;;;;;;5111773;28;20448;-67
2021/03/26 05:09:32;;;;;;;32.37;28.37;;;6.50;99.90;;;;;;5112036;28;20436;-66
2021/03/26 05:12:03;;;;;;;29.30;26.30;;;6.50;99.90;;;;;;5111707;28;20444;-66
2021/03/26 05:14:34;;;;;;;31.33;28.20;;;6.50;99.90;;;;;;5123259;27;20445;-68
2021/03/26 05:17:07;;;;;;;31.83;26.47;;;6.40;99.90;;;;;;5132017;27;20471;-67
2021/03/26 05:19:40;;;;;;;38.53;24.77;;;6.40;99.90;;;;;;5132069;28;20440;-67
2021/03/26 05:22:25;;;;;;;30.60;25.90;;;6.50;99.90;;;;;;5132190;27;20465;-67
2021/03/26 05:24:59;;;;;;;29.37;26.43;;;6.40;99.90;;;;;;5132449;27;20451;-68
2021/03/26 05:27:26;;;;;;;28.83;24.80;;;6.40;99.90;;;;;;5132231;27;20450;-68
2021/03/26 05:29:52;;;;;;;28.10;25.30;;;6.30;99.90;;;;;;5131774;28;20448;-68
2021/03/26 05:32:22;;;;;;;27.93;25.40;;;6.30;99.90;;;;;;5131836;27;20518;-68
2021/03/26 05:34:52;;;;;;;30.37;27.30;;;6.30;99.90;;;;;;5090422;28;20449;-68
2021/03/26 05:37:25;;;;;;;29.47;26.57;;;6.30;99.90;;;;;;5091306;28;20440;-67
2021/03/26 05:39:57;;;;;;;30.87;26.97;;;6.30;99.90;;;;;;5091116;28;20487;-67
2021/03/26 05:42:41;;;;;;;34.07;28.53;;;6.30;99.90;;;;;;5091132;28;20488;-67
2021/03/26 05:45:19;;;;;;;30.90;26.63;;;6.30;99.90;;;;;;5091103;28;20455;-68
2021/03/26 05:47:56;;;;;;;30.93;28.07;;;6.30;99.90;;;;;;5091138;28;20837;-68
2021/03/26 05:50:42;;;;;;;29.23;26.30;;;6.40;99.90;;;;;;5091105;28;20447;-66
2021/03/26 05:53:38;;;;;;;32.70;27.43;;;6.40;99.90;;;;;;5090879;28;20460;-67
2021/03/26 05:56:14;;;;;;;26.70;23.80;;;6.40;99.90;;;;;;5089013;28;20519;-67
2021/03/26 05:58:58;;;;;;;28.77;25.97;;;6.40;99.90;;;;;;5090919;28;20460;-67
2021/03/26 06:01:51;;;;;;;28.67;26.00;;;6.30;99.90;;;;;;5091128;28;20491;-67
2021/03/26 06:04:53;;;;;;;30.23;27.07;;;6.30;99.90;;;;;;5090866;28;20438;-67
2021/03/26 06:07:36;;;;;;;31.20;28.00;;;6.60;99.90;;;;;;5090906;28;20445;-67
2021/03/26 06:10:30;;;;;;;27.60;25.00;;;6.90;99.90;;;;;;5091000;28;20986;-67
2021/03/26 06:13:33;;;;;;;30.10;27.10;;;7.20;99.90;;;;;;5090919;28;21036;-67
2021/03/26 06:16:36;;;;;;;30.13;27.30;;;7.40;99.90;;;;;;5093037;28;20542;-68
2021/03/26 06:19:25;;;;;;;30.63;27.70;;;7.50;99.90;;;;;;5094064;28;20454;-67
2021/03/26 06:22:10;;;;;;;31.97;27.03;;;7.70;99.90;;;;;;5094365;28;20504;-67
2021/03/26 06:25:13;;;;;;;30.63;27.57;;;7.90;99.90;;;;;;5094342;28;20449;-69
2021/03/26 06:27:42;;;;;;;30.13;27.10;;;8.20;99.90;;;;;;5094323;28;20821;-69
2021/03/26 06:30:19;;;;;;;28.40;25.80;;;8.30;99.90;;;;;;5094293;28;20434;-69
2021/03/26 06:33:31;;;;;;;28.27;25.67;;;8.60;99.90;;;;;;5094277;28;20477;-69
2021/03/26 06:36:28;;;;;;;29.30;25.83;;;8.80;99.90;;;;;;5094317;28;20499;-69
2021/03/26 06:39:32;;;;;;;30.27;26.70;;;9.10;99.90;;;;;;5094111;28;20453;-70
2021/03/26 06:42:30;;;;;;;35.10;26.57;;;9.40;99.90;;;;;;5093891;28;20882;-69
2021/03/26 06:45:22;;;;;;;29.80;26.87;;;9.50;99.90;;;;;;5093912;28;20454;-68
2021/03/26 06:47:58;;;;;;;29.30;26.27;;;9.40;99.90;;;;;;5093784;28;20427;-68
2021/03/26 06:50:55;;;;;;;33.43;25.37;;;9.30;99.90;;;;;;5094005;28;20441;-67
2021/03/26 06:53:28;;;;;;;29.80;26.20;;;9.00;99.90;;;;;;5094639;28;20427;-68
2021/03/26 06:56:31;;;;;;;28.93;26.37;;;9.10;99.90;;;;;;5094173;28;20447;-68
2021/03/26 06:59:23;;;;;;;27.47;24.87;;;9.50;99.90;;;;;;5061658;28;20457;-67
2021/03/26 07:01:55;;;;;;;24.67;22.67;;;9.70;99.90;;;;;;5093873;28;20501;-67
2021/03/26 07:05:01;;;;;;;25.70;23.50;;;10.10;99.90;;;;;;5093736;28;20450;-66
2021/03/26 07:07:52;;;;;;;25.20;22.53;;;10.00;99.90;;;;;;5093735;28;20446;-68
2021/03/26 07:10:42;;;;;;;24.40;22.00;;;10.30;99.90;;;;;;5093470;28;20450;-69
2021/03/26 07:13:40;;;;;;;27.17;24.37;;;10.30;99.90;;;;;;5093688;27;20561;-67
2021/03/26 07:16:37;;;;;;;27.47;24.40;;;10.30;99.90;;;;;;5134039;27;20831;-68
2021/03/26 07:19:20;;;;;;;24.63;22.43;;;10.10;99.90;;;;;;5133939;27;20456;-70
2021/03/26 07:22:24;;;;;;;26.17;23.83;;;10.20;99.90;;;;;;5133634;27;20506;-68
2021/03/26 07:25:07;;;;;;;23.03;21.17;;;10.80;99.90;;;;;;5133231;27;20444;-71
2021/03/26 07:27:52;;;;;;;26.60;24.20;;;10.90;99.90;;;;;;5131654;27;20448;-71
2021/03/26 07:30:30;;;;;;;24.40;22.00;;;11.30;99.90;;;;;;5133535;27;20451;-72
2021/03/26 07:33:06;;;;;;;25.07;22.77;;;12.20;99.90;;;;;;5133252;27;20440;-71
2021/03/26 07:36:19;;;;;;;27.57;25.03;;;12.80;99.90;;;;;;5133216;27;20937;-72
2021/03/26 07:39:06;;;;;;;26.63;24.63;;;13.80;99.90;;;;;;5095805;27;20864;-72
2021/03/26 07:42:21;;;;;;;28.10;25.57;;;13.70;99.30;;;;;;5132846;27;21020;-72
2021/03/26 07:45:06;;;;;;;27.37;24.97;;;13.70;99.30;;;;;;5049650;28;20566;-72
2021/03/26 07:47:44;;;;;;;24.83;22.70;;;13.80;98.80;;;;;;5133203;27;20448;-72
2021/03/26 07:50:38;;;;;;;25.67;22.97;;;14.20;98.40;;;;;;5132905;27;20444;-72
2021/03/26 07:53:18;;;;;;;23.97;21.73;;;14.40;97.80;;;;;;5133091;27;20466;-72
2021/03/26 07:55:51;;;;;;;23.43;21.40;;;14.00;98.00;;;;;;5132906;27;20452;-72
2021/03/26 07:59:11;;;;;;;24.03;22.13;;;14.20;97.80;;;;;;5132856;27;20459;-72
2021/03/26 08:02:00;;;;;;;26.47;24.03;;;14.60;96.90;;;;;;5048767;28;21075;-72
2021/03/26 08:04:31;;;;;;;23.67;21.67;;;15.10;96.10;;;;;;5132525;27;20456;-74
2021/03/26 08:07:43;;;;;;;23.80;22.00;;;15.30;95.70;;;;;;5132472;27;20459;-71
2021/03/26 08:10:34;;;;;;;22.50;20.53;;;15.40;95.20;;;;;;5095324;27;20796;-71
2021/03/26 08:13:29;;;;;;;23.20;21.40;;;15.40;94.90;;;;;;5132491;27;21032;-71
2021/03/26 08:16:05;;;;;;;24.73;22.87;;;15.90;93.80;;;;;;5091570;28;20495;-70
2021/03/26 08:18:45;;;;;;;23.37;21.70;;;16.70;92.70;;;;;;5091592;28;20965;-71
2021/03/26 08:21:17;;;;;;;24.87;22.80;;;17.40;91.90;;;;;;5091722;28;20481;-71
2021/03/26 08:23:53;;;;;;;23.87;21.60;;;18.10;90.00;;;;;;5091282;28;20446;-71
2021/03/26 08:26:36;;;;;;;23.50;21.83;;;18.10;88.50;;;;;;5091680;28;20954;-71
2021/03/26 08:29:25;;;;;;;22.27;20.50;;;18.70;85.80;;;;;;5091398;28;20451;-71
2021/03/26 08:32:04;;;;;;;21.53;20.13;;;18.30;85.60;;;;;;5091674;28;20544;-71
2021/03/26 08:34:44;;;;;;;23.37;21.37;;;18.30;86.70;;;;;;5091729;28;20796;-71
2021/03/26 08:37:22;;;;;;;21.63;20.07;;;18.40;84.40;;;;;;5091009;28;20446;-71
2021/03/26 08:39:50;;;;;;;21.00;19.60;;;18.70;84.10;;;;;;5091418;28;20468;-71
2021/03/26 08:42:23;;;;;;;22.67;21.00;;;18.60;83.40;;;;;;5091219;28;20466;-71
2021/03/26 08:44:54;;;;;;;24.40;22.50;;;18.70;83.60;;;;;;5091347;28;20475;-71
2021/03/26 08:47:26;;;;;;;23.50;21.87;;;19.10;81.70;;;;;;5090985;28;20443;-70
2021/03/26 08:50:05;;;;;;;23.07;21.40;;;19.50;81.10;;;;;;5091288;28;20441;-71
2021/03/26 08:52:53;;;;;;;24.13;22.13;;;19.40;80.00;;;;;;5090912;28;20450;-71
2021/03/26 08:55:56;;;;;;;21.97;19.80;;;18.80;81.30;;;;;;5091118;28;20442;-71
2021/03/26 08:58:57;;;;;;;22.23;20.07;;;18.80;80.20;;;;;;5090872;28;20918;-71
2021/03/26 09:01:54;;;;;;;21.07;19.57;;;18.70;80.80;;;;;;5091110;28;20486;-71
2021/03/26 09:05:00;;;;;;;21.73;19.93;;;18.80;79.60;;;;;;5091442;28;20446;-71
2021/03/26 09:07:40;;;;;;;22.20;20.40;;;19.30;79.50;;;;;;5054882;28;20465;-71
2021/03/26 09:10:56;;;;;;;21.63;20.07;;;20.20;77.60;;;;;;5090685;28;20457;-71
2021/03/26 09:13:34;;;;;;;23.10;21.50;;;19.90;75.30;;;;;;5095119;28;20808;-71
2021/03/26 09:16:07;;;;;;;22.70;20.57;;;19.70;75.90;;;;;;5131557;27;20552;-71
2021/03/26 09:18:46;;;;;;;20.90;19.40;;;19.70;74.30;;;;;;5131464;27;20456;-71
2021/03/26 09:21:26;;;;;;;21.00;19.60;;;19.40;75.10;;;;;;5131730;27;20633;-71
2021/03/26 09:24:17;;;;;;;24.13;22.03;;;19.80;75.30;;;;;;5131539;27;20464;-71
2021/03/26 09:26:56;;;;;;;23.00;21.27;;;20.40;72.60;;;;;;5131996;27;20440;-71
2021/03/26 09:29:31;;;;;;;22.87;20.97;;;19.90;74.90;;;;;;5124444;27;20477;-71
2021/03/26 09:32:06;;;;;;;23.07;21.20;;;20.40;73.40;;;;;;5091247;28;20438;-71
2021/03/26 09:34:35;;;;;;;23.80;21.67;;;21.10;70.40;;;;;;5090962;28;20446;-71
2021/03/26 09:37:11;;;;;;;20.77;19.40;;;22.00;68.60;;;;;;5091153;28;21229;-72
2021/03/26 09:39:40;;;;;;;22.10;20.50;;;22.20;66.00;;;;;;5105825;28;20532;-71
2021/03/26 09:42:32;;;;;;;23.37;21.37;;;22.10;65.90;;;;;;5102860;28;20481;-71
2021/03/26 09:45:05;;;;;;;23.53;21.50;;;21.90;65.50;;;;;;5111633;28;20491;-71
2021/03/26 09:47:38;;;;;;;22.60;20.80;;;22.10;64.20;;;;;;5111679;28;20470;-70
2021/03/26 09:50:24;;;;;;;25.63;23.10;;;21.80;65.10;;;;;;5112816;28;20445;-72
2021/03/26 09:52:51;;;;;;;22.17;20.40;;;21.00;67.00;;;;;;5115232;28;20957;-71
2021/03/26 09:55:25;;;;;;;23.37;21.57;;;21.10;66.70;;;;;;5115352;28;20457;-71
2021/03/26 09:57:56;;;;;;;22.97;21.10;;;21.40;66.10;;;;;;5115238;28;20483;-71
2021/03/26 10:00:44;;;;;;;22.83;20.97;;;21.70;65.10;;;;;;5115257;28;20473;-71
2021/03/26 10:03:24;;;;;;;23.37;21.50;;;22.40;63.20;;;;;;5114985;28;20465;-71
2021/03/26 10:05:56;;;;;;;24.00;22.10;;;22.20;62.20;;;;;;5114878;28;20448;-71
2021/03/26 10:11:21;;;;;;;20.47;19.17;;;21.80;63.00;;;;;;5098861;28;20432;-71
2021/03/26 10:13:52;;;;;;;21.40;20.00;;;21.90;63.50;;;;;;5114526;28;20453;-70
2021/03/26 10:16:24;;;;;;;23.50;21.50;;;22.00;63.30;;;;;;5114338;28;20484;-70
2021/03/26 10:18:54;;;;;;;23.57;21.33;;;22.40;63.10;;;;;;5114660;28;20441;-70
2021/03/26 10:21:23;;;;;;;24.47;22.77;;;22.60;61.40;;;;;;5114587;28;20489;-71
2021/03/26 10:24:07;;;;;;;22.60;20.67;;;22.70;60.80;;;;;;5114873;28;20557;-72
2021/03/26 10:26:39;;;;;;;22.60;21.00;;;22.90;59.90;;;;;;5114863;28;20479;-72
2021/03/26 10:29:29;;;;;;;23.20;21.47;;;23.10;59.70;;;;;;5103959;28;20777;-74
2021/03/26 10:32:07;;;;;;;25.30;23.30;;;22.60;60.70;;;;;;5093715;28;20454;-72
2021/03/26 10:34:35;;;;;;;22.20;20.20;;;24.00;58.40;;;;;;5094011;28;20453;-72
2021/03/26 10:37:17;;;;;;;25.00;22.90;;;24.50;56.80;;;;;;5094179;28;20496;-72
2021/03/26 10:39:50;;;;;;;22.93;21.33;;;23.90;56.70;;;;;;5093704;28;20446;-72
2021/03/26 10:42:30;;;;;;;21.40;20.00;;;23.60;56.80;;;;;;5093484;28;20521;-72
2021/03/26 10:45:23;;;;;;;23.63;21.90;;;24.30;56.90;;;;;;5093854;28;20453;-72
2021/03/26 10:47:54;;;;;;;22.17;20.47;;;24.90;55.50;;;;;;5093785;28;20449;-72
2021/03/26 10:50:32;;;;;;;21.90;19.93;;;24.50;54.60;;;;;;5093772;28;20951;-72
2021/03/26 10:53:06;;;;;;;22.53;20.80;;;23.50;55.90;;;;;;5093582;28;20838;-72
2021/03/26 10:55:42;;;;;;;23.23;20.87;;;23.10;56.40;;;;;;5093749;28;20500;-72
2021/03/26 10:58:20;;;;;;;21.90;20.40;;;22.80;57.10;;;;;;5093557;28;20450;-71
2021/03/26 11:00:57;;;;;;;22.63;20.10;;;23.10;57.40;;;;;;5092805;28;20849;-71
2021/03/26 11:03:27;;;;;;;20.57;19.03;;;22.90;56.60;;;;;;5093493;28;20942;-71
2021/03/26 11:05:57;;;;;;;22.17;20.47;;;22.50;56.60;;;;;;5093063;28;20499;-72
2021/03/26 11:08:40;;;;;;;19.67;18.23;;;22.00;57.40;;;;;;5093329;28;20453;-72
2021/03/26 11:11:18;;;;;;;21.17;19.63;;;22.40;57.00;;;;;;5093685;28;20452;-72
2021/03/26 11:14:23;;;;;;;20.87;19.27;;;24.20;54.90;;;;;;5103894;27;20444;-73
2021/03/26 11:17:02;;;;;;;19.77;18.50;;;25.10;53.00;;;;;;5134390;27;20480;-72
2021/03/26 11:19:31;;;;;;;19.80;18.50;;;23.90;52.60;;;;;;5134305;27;20449;-71
2021/03/26 11:22:06;;;;;;;20.50;18.80;;;23.00;54.50;;;;;;5134201;27;20579;-71
2021/03/26 11:24:43;;;;;;;20.43;19.03;;;22.40;55.80;;;;;;5134155;27;20955;-72
2021/03/26 11:27:16;;;;;;;18.70;17.60;;;21.90;56.80;;;;;;5134331;27;20809;-71
2021/03/26 11:29:48;;;;;;;18.67;17.57;;;20.70;57.70;;;;;;5133740;27;20950;-71
2021/03/26 11:32:24;;;;;;;19.03;17.83;;;20.60;58.00;;;;;;5133908;27;20448;-71
2021/03/26 11:35:00;;;;;;;16.40;15.43;;;21.10;57.60;;;;;;5134047;27;20467;-71
2021/03/26 11:37:35;;;;;;;17.83;16.63;;;21.40;56.90;;;;;;5134003;27;20482;-72
2021/03/26 11:40:07;;;;;;;16.33;15.43;;;22.30;55.10;;;;;;5134187;27;20466;-72
2021/03/26 11:42:49;;;;;;;16.83;15.70;;;23.70;51.80;;;;;;5133680;27;20484;-72
2021/03/26 11:45:45;;;;;;;18.10;16.87;;;24.10;50.90;;;;;;5133803;27;20444;-72
2021/03/26 11:48:21;;;;;;;16.43;15.63;;;25.00;49.00;;;;;;5133910;27;20441;-72
2021/03/26 11:51:11;;;;;;;17.60;16.43;;;25.90;47.30;;;;;;5133616;27;20440;-72
2021/03/26 11:53:45;;;;;;;17.73;16.73;;;26.10;47.10;;;;;;5128793;27;20510;-72
2021/03/26 11:56:21;;;;;;;16.03;15.13;;;25.30;46.90;;;;;;5132957;27;20459;-72
2021/03/26 11:59:10;;;;;;;15.67;14.87;;;25.00;46.80;;;;;;5133166;27;21006;-71
2021/03/26 12:01:46;;;;;;;15.63;14.30;;;24.20;47.20;;;;;;5133443;27;20480;-72
2021/03/26 12:04:18;;;;;;;16.53;15.53;;;23.90;47.70;;;;;;5133408;27;20533;-72
2021/03/26 12:06:52;;;;;;;15.47;14.67;;;24.30;47.40;;;;;;5133491;27;20448;-71
2021/03/26 12:09:28;;;;;;;15.70;14.60;;;24.20;46.70;;;;;;5133367;27;20790;-72
2021/03/26 12:12:08;;;;;;;15.17;14.30;;;25.40;44.50;;;;;;5132724;27;20480;-72
2021/03/26 12:14:45;;;;;;;14.97;14.07;;;24.30;45.20;;;;;;5120142;27;20493;-72
2021/03/26 12:17:34;;;;;;;16.40;15.60;;;24.80;45.20;;;;;;5112258;28;20484;-72
2021/03/26 12:20:04;;;;;;;17.10;15.80;;;25.00;46.00;;;;;;5112597;28;20860;-70
2021/03/26 12:22:41;;;;;;;16.67;15.67;;;25.90;44.20;;;;;;5112786;28;20560;-70
2021/03/26 12:25:12;;;;;;;17.10;16.20;;;26.40;43.20;;;;;;5108987;28;20507;-69
2021/03/26 12:27:42;;;;;;;16.33;15.53;;;26.10;43.40;;;;;;5102044;28;20868;-69
2021/03/26 12:30:12;;;;;;;16.37;15.37;;;26.50;43.90;;;;;;5103143;28;20438;-69
2021/03/26 12:32:43;;;;;;;16.50;15.70;;;27.10;42.10;;;;;;5107781;28;20808;-70
2021/03/26 12:35:27;;;;;;;16.63;15.70;;;26.40;41.40;;;;;;5112145;28;20442;-69
2021/03/26 12:38:02;;;;;;;16.87;15.90;;;25.50;42.40;;;;;;5112513;28;20488;-69
2021/03/26 12:41:01;;;;;;;17.50;16.20;;;25.00;43.60;;;;;;5112012;28;20856;-69
2021/03/26 12:43:37;;;;;;;16.93;16.03;;;25.20;43.40;;;;;;5108547;27;20499;-69
2021/03/26 12:46:16;;;;;;;16.13;15.40;;;25.40;43.00;;;;;;5111896;28;20461;-69
2021/03/26 12:48:46;;;;;;;16.30;15.30;;;25.10;43.60;;;;;;5112057;28;20498;-69
2021/03/26 12:51:22;;;;;;;16.87;16.07;;;25.40;42.10;;;;;;5111892;28;20442;-69
2021/03/26 12:53:54;;;;;;;17.30;16.40;;;25.60;41.30;;;;;;5111923;28;20452;-69
2021/03/26 12:56:26;;;;;;;15.40;14.57;;;25.00;42.40;;;;;;5111895;28;20468;-68
2021/03/26 12:59:12;;;;;;;15.20;14.43;;;24.50;43.70;;;;;;5111855;28;20920;-69
2021/03/26 13:01:44;;;;;;;16.47;15.57;;;24.80;43.30;;;;;;5111567;28;20485;-69
2021/03/26 13:04:26;;;;;;;14.77;14.03;;;25.20;41.20;;;;;;5111889;28;20954;-69
2021/03/26 13:06:57;;;;;;;14.80;13.80;;;24.70;41.80;;;;;;5112046;28;20430;-69
2021/03/26 13:09:29;;;;;;;15.87;14.97;;;24.50;41.70;;;;;;5112017;28;20457;-69
2021/03/26 13:12:01;;;;;;;15.43;14.63;;;25.00;40.70;;;;;;5111619;28;20461;-68
2021/03/26 13:14:31;;;;;;;15.10;14.30;;;25.10;41.30;;;;;;5122785;27;20461;-68
2021/03/26 13:16:57;;;;;;;15.73;14.90;;;26.00;40.50;;;;;;5132169;27;20528;-68
2021/03/26 13:19:31;;;;;;;16.57;15.40;;;25.90;39.80;;;;;;5132002;27;20938;-68
2021/03/26 13:22:23;;;;;;;16.07;15.27;;;25.00;41.70;;;;;;5131980;27;20528;-68
2021/03/26 13:25:05;;;;;;;17.00;15.90;;;25.30;41.60;;;;;;5130045;27;20464;-68